Time;durP1;ratioP1;P1;durP2;ratioP2;P2;SDS_P1;SDS_P2;PMS_P1;PMS_P2;Temp;Humidity;BMP_temperature;BMP_pressure;BME280_temperature;BME280_humidity;BME280_pressure;Samples;Min_cycle;Max_cycle;Signal;HPM_P1;HPM_P2
2022/02/13 00:01:09;;;;;;;4.93;2.47;;;;;;;-4.60;73.41;97158.28;1721913;83;20961;-79
2022/02/13 00:03:34;;;;;;;3.57;2.53;;;;;;;-4.81;74.15;97162.54;1721983;83;21029;-79
2022/02/13 00:06:01;;;;;;;6.13;2.70;;;;;;;-4.84;73.74;97159.77;1721998;82;21466;-79
2022/02/13 00:08:28;;;;;;;4.03;2.20;;;;;;;-4.79;74.12;97158.39;1721553;83;21041;-78
2022/02/13 00:10:55;;;;;;;4.43;2.40;;;;;;;-4.80;73.96;97155.70;1721573;83;21096;-79
2022/02/13 00:13:21;;;;;;;4.73;2.57;;;;;;;-4.69;74.59;97152.13;1722038;83;21061;-80
2022/02/13 00:15:48;;;;;;;5.13;2.60;;;;;;;-4.60;73.90;97154.42;1721896;83;21467;-79
2022/02/13 00:18:14;;;;;;;4.70;2.23;;;;;;;-4.68;72.99;97162.94;1717510;83;21101;-79
2022/02/13 00:20:41;;;;;;;5.27;3.10;;;;;;;-4.79;73.31;97162.62;1716602;84;21490;-79
2022/02/13 00:23:08;;;;;;;3.43;2.40;;;;;;;-4.94;73.13;97158.64;1715969;84;21069;-73
2022/02/13 00:25:34;;;;;;;5.20;2.10;;;;;;;-4.96;73.76;97159.33;1716622;83;21021;-79
2022/02/13 00:28:02;;;;;;;3.80;2.10;;;;;;;-4.97;73.81;97158.45;1716410;83;21036;-79
2022/02/13 00:30:29;;;;;;;4.73;2.23;;;;;;;-5.00;73.55;97156.56;1716468;83;21528;-78
2022/02/13 00:32:57;;;;;;;7.77;3.03;;;;;;;-4.97;73.32;97154.98;1716399;84;21060;-78
2022/02/13 00:35:26;;;;;;;3.80;2.03;;;;;;;-5.02;73.59;97151.70;1716177;84;21139;-79
2022/02/13 00:37:52;;;;;;;3.33;2.20;;;;;;;-5.01;73.44;97153.91;1716578;84;21428;-78
2022/02/13 00:40:20;;;;;;;3.67;2.20;;;;;;;-4.97;73.75;97151.13;1716057;83;21005;-78
2022/02/13 00:42:48;;;;;;;2.93;2.27;;;;;;;-5.01;73.20;97144.50;1716293;83;21032;-78
2022/02/13 00:45:14;;;;;;;5.73;3.27;;;;;;;-5.01;73.56;97143.62;1716146;84;21077;-78
2022/02/13 00:47:40;;;;;;;19.13;8.77;;;;;;;-5.09;74.15;97146.97;1716672;83;21037;-78
2022/02/13 00:50:08;;;;;;;7.53;3.80;;;;;;;-5.05;74.55;97146.36;1716147;83;21041;-78
2022/02/13 00:52:35;;;;;;;4.57;2.27;;;;;;;-5.02;74.14;97138.84;1716798;83;21092;-78
2022/02/13 00:55:02;;;;;;;4.70;2.27;;;;;;;-5.01;73.62;97129.05;1716380;83;21033;-78
2022/02/13 00:57:30;;;;;;;5.07;2.77;;;;;;;-5.13;73.82;97128.64;1716343;83;21044;-78
2022/02/13 00:59:56;;;;;;;4.97;2.60;;;;;;;-5.20;74.66;97131.20;1716194;83;21143;-78
2022/02/13 01:02:23;;;;;;;6.50;3.17;;;;;;;-5.26;75.10;97136.84;1716325;84;21068;-78
2022/02/13 01:04:50;;;;;;;5.23;2.77;;;;;;;-5.20;74.75;97135.05;1716350;84;21076;-78
2022/02/13 01:07:16;;;;;;;6.23;2.30;;;;;;;-5.35;74.07;97131.47;1716585;84;21056;-78
2022/02/13 01:09:43;;;;;;;6.17;3.10;;;;;;;-5.50;74.08;97135.19;1716370;83;21049;-78
2022/02/13 01:12:10;;;;;;;6.70;3.17;;;;;;;-5.48;74.61;97135.78;1716291;83;21522;-78
2022/02/13 01:14:37;;;;;;;3.83;2.30;;;;;;;-5.50;74.89;97134.78;1716372;83;20993;-77
2022/02/13 01:17:04;;;;;;;4.93;2.47;;;;;;;-5.36;75.10;97134.44;1716264;84;21025;-78
2022/02/13 01:19:31;;;;;;;3.37;2.03;;;;;;;-5.34;74.68;97133.23;1716384;83;21064;-78
2022/02/13 01:22:00;;;;;;;6.57;2.80;;;;;;;-5.21;74.66;97129.43;1716455;84;21486;-78
2022/02/13 01:24:26;;;;;;;4.33;2.73;;;;;;;-5.13;74.58;97118.35;1716313;83;21017;-78
2022/02/13 01:26:53;;;;;;;5.57;3.10;;;;;;;-5.04;74.52;97118.56;1716279;84;21036;-77
2022/02/13 01:29:19;;;;;;;7.43;3.63;;;;;;;-5.05;73.83;97119.34;1716334;83;21506;-78
2022/02/13 01:31:46;;;;;;;9.37;3.67;;;;;;;-5.25;75.17;97116.73;1716296;83;21021;-78
2022/02/13 01:34:13;;;;;;;10.47;3.90;;;;;;;-5.19;75.59;97114.07;1716454;83;21021;-78
2022/02/13 01:36:40;;;;;;;4.97;2.30;;;;;;;-5.22;75.11;97113.11;1716357;83;21025;-78
2022/02/13 01:39:10;;;;;;;5.97;3.00;;;;;;;-5.25;74.60;97102.59;1715610;84;21061;-78
2022/02/13 01:41:36;;;;;;;6.27;2.87;;;;;;;-5.36;74.15;97106.14;1716067;84;21044;-78
2022/02/13 01:44:03;;;;;;;4.00;2.47;;;;;;;-5.45;75.28;97106.80;1716635;84;21069;-78
2022/02/13 01:46:30;;;;;;;4.17;2.60;;;;;;;-5.37;75.40;97110.77;1716393;84;21045;-78
2022/02/13 01:48:56;;;;;;;4.80;2.67;;;;;;;-5.44;75.11;97100.49;1716392;83;21033;-77
2022/02/13 01:51:24;;;;;;;3.03;2.23;;;;;;;-5.47;75.70;97093.86;1716423;84;21491;-78
2022/02/13 01:53:51;;;;;;;4.73;2.20;;;;;;;-5.39;75.16;97095.66;1716188;83;21013;-78
2022/02/13 01:56:19;;;;;;;4.73;2.50;;;;;;;-5.34;75.06;97098.51;1716074;83;21041;-78
2022/02/13 01:58:46;;;;;;;5.23;2.70;;;;;;;-5.21;75.35;97090.83;1716381;84;21478;-78
2022/02/13 02:01:12;;;;;;;2.97;2.03;;;;;;;-5.21;74.28;97083.11;1716385;83;21017;-78
2022/02/13 02:03:39;;;;;;;5.33;2.40;;;;;;;-5.30;74.42;97088.53;1716466;83;21514;-78
2022/02/13 02:06:06;;;;;;;3.80;2.30;;;;;;;-5.23;74.57;97088.14;1716638;83;21065;-78
2022/02/13 02:08:32;;;;;;;4.27;2.40;;;;;;;-5.28;74.09;97087.36;1716422;83;21021;-78
2022/02/13 02:10:59;;;;;;;4.17;2.13;;;;;;;-5.24;74.39;97084.20;1716016;83;21006;-78
2022/02/13 02:13:25;;;;;;;5.07;2.53;;;;;;;-5.19;74.18;97078.05;1716224;84;21574;-78
2022/02/13 02:15:51;;;;;;;5.20;2.60;;;;;;;-5.28;73.61;97079.23;1716600;84;20989;-78
2022/02/13 02:18:18;;;;;;;5.97;2.70;;;;;;;-5.39;74.06;97080.59;1716013;83;21144;-78
2022/02/13 02:20:45;;;;;;;5.13;2.50;;;;;;;-5.43;74.48;97084.66;1716154;83;21065;-78
2022/02/13 02:23:12;;;;;;;3.73;2.50;;;;;;;-5.48;74.51;97083.46;1716390;83;21078;-78
2022/02/13 02:25:39;;;;;;;6.10;2.60;;;;;;;-5.43;74.58;97079.52;1716295;84;21028;-77
2022/02/13 02:28:06;;;;;;;4.77;2.77;;;;;;;-5.54;75.21;97081.37;1716005;83;21045;-78
2022/02/13 02:30:33;;;;;;;6.33;3.00;;;;;;;-5.51;75.76;97079.41;1716311;83;21045;-79
2022/02/13 02:32:59;;;;;;;7.53;3.17;;;;;;;-5.51;75.03;97076.84;1716310;84;21555;-78
2022/02/13 02:35:26;;;;;;;4.93;2.73;;;;;;;-5.55;75.02;97074.44;1716262;83;21071;-78
2022/02/13 02:37:52;;;;;;;4.40;2.57;;;;;;;-5.68;75.47;97071.84;1716434;83;20981;-78
2022/02/13 02:40:19;;;;;;;5.10;2.97;;;;;;;-5.72;75.45;97075.90;1716332;84;21000;-78
2022/02/13 02:42:47;;;;;;;4.87;2.70;;;;;;;-5.74;75.76;97081.33;1716241;83;21064;-78
2022/02/13 02:45:15;;;;;;;5.77;2.77;;;;;;;-5.63;75.38;97084.61;1716570;84;21033;-79
2022/02/13 02:47:42;;;;;;;5.33;3.50;;;;;;;-5.61;75.27;97082.16;1716417;83;21514;-78
2022/02/13 02:50:11;;;;;;;6.67;3.13;;;;;;;-5.50;75.17;97078.61;1716065;84;21064;-77
2022/02/13 02:52:38;;;;;;;7.00;2.77;;;;;;;-5.40;75.29;97078.42;1716456;83;21076;-77
2022/02/13 02:55:06;;;;;;;4.33;2.30;;;;;;;-5.44;74.73;97087.63;1716485;84;20997;-77
2022/02/13 02:57:33;;;;;;;5.53;2.80;;;;;;;-5.54;74.47;97085.23;1716482;83;21013;-77
2022/02/13 03:00:01;;;;;;;4.17;2.30;;;;;;;-5.54;74.50;97092.06;1716786;84;21013;-78
2022/02/13 03:02:27;;;;;;;5.00;2.33;;;;;;;-5.61;74.48;97093.73;1716102;84;21498;-77
2022/02/13 03:04:54;;;;;;;6.70;2.70;;;;;;;-5.56;74.65;97094.92;1716557;84;21004;-77
2022/02/13 03:07:20;;;;;;;4.43;2.17;;;;;;;-5.53;74.64;97092.55;1716629;83;21048;-77
2022/02/13 03:09:47;;;;;;;3.80;2.20;;;;;;;-5.51;74.56;97090.98;1716220;83;21016;-77
2022/02/13 03:12:13;;;;;;;8.73;2.67;;;;;;;-5.56;74.11;97097.50;1716547;84;21495;-77
2022/02/13 03:14:40;;;;;;;4.60;2.10;;;;;;;-5.53;74.29;97102.84;1716473;83;21048;-77
2022/02/13 03:17:08;;;;;;;4.60;2.73;;;;;;;-5.59;74.16;97093.41;1716454;84;21044;-77
2022/02/13 03:19:36;;;;;;;5.57;2.30;;;;;;;-5.66;74.54;97099.44;1716272;83;21024;-78
2022/02/13 03:22:03;;;;;;;5.60;2.20;;;;;;;-5.77;74.64;97097.84;1716219;84;21085;-78
2022/02/13 03:24:30;;;;;;;3.57;2.07;;;;;;;-5.86;74.97;97098.48;1716033;84;21023;-78
2022/02/13 03:26:57;;;;;;;7.33;3.10;;;;;;;-5.87;75.24;97092.86;1716313;83;21539;-77
2022/02/13 03:29:23;;;;;;;5.77;2.33;;;;;;;-5.77;75.38;97090.49;1716231;83;21607;-78
2022/02/13 03:31:50;;;;;;;3.27;1.47;;;;;;;-5.62;74.99;97094.09;1716427;83;21032;-78
2022/02/13 03:34:16;;;;;;;2.90;1.80;;;;;;;-5.75;73.89;97097.52;1716491;83;20962;-78
2022/02/13 03:36:43;;;;;;;4.43;2.00;;;;;;;-5.85;74.30;97092.95;1716459;83;21025;-78
2022/02/13 03:39:10;;;;;;;3.27;1.80;;;;;;;-5.87;74.65;97086.44;1716471;84;21298;-78
2022/02/13 03:41:37;;;;;;;4.03;2.17;;;;;;;-5.91;75.22;97101.13;1716280;84;21020;-78
2022/02/13 03:44:05;;;;;;;4.00;2.50;;;;;;;-5.85;75.59;97099.37;1716757;83;21000;-78
2022/02/13 03:46:31;;;;;;;5.73;2.63;;;;;;;-5.98;75.32;97098.96;1716260;83;21025;-79
2022/02/13 03:48:58;;;;;;;3.50;2.03;;;;;;;-6.02;75.52;97086.67;1716642;83;21018;-78
2022/02/13 03:51:24;;;;;;;2.73;1.70;;;;;;;-6.06;75.57;97095.86;1716564;83;21032;-80
2022/02/13 03:53:50;;;;;;;4.73;2.83;;;;;;;-5.99;75.74;97089.08;1716452;83;21475;-78
2022/02/13 03:56:17;;;;;;;8.83;5.10;;;;;;;-6.06;75.45;97092.02;1716415;83;21017;-79
2022/02/13 03:58:44;;;;;;;12.33;5.30;;;;;;;-6.05;76.17;97093.78;1716450;84;21286;-78
2022/02/13 04:01:10;;;;;;;6.73;3.10;;;;;;;-5.97;75.73;97096.52;1716408;84;21483;-78
2022/02/13 04:03:37;;;;;;;8.23;4.43;;;;;;;-6.02;75.30;97095.30;1716392;84;21080;-78
2022/02/13 04:06:03;;;;;;;7.07;3.80;;;;;;;-6.12;76.14;97098.03;1716364;83;20993;-79
2022/02/13 04:08:30;;;;;;;9.67;5.47;;;;;;;-6.08;76.00;97092.69;1716469;83;21491;-78
2022/02/13 04:10:58;;;;;;;8.47;4.00;;;;;;;-6.13;75.25;97086.83;1716439;83;20993;-78
2022/02/13 04:13:27;;;;;;;5.90;3.00;;;;;;;-6.20;75.32;97087.22;1716307;83;21068;-78
2022/02/13 04:15:55;;;;;;;6.63;3.60;;;;;;;-6.18;75.73;97089.87;1716517;83;21463;-78
2022/02/13 04:18:21;;;;;;;6.17;3.23;;;;;;;-6.00;76.18;97086.00;1716431;84;21021;-77
2022/02/13 04:20:48;;;;;;;6.60;3.20;;;;;;;-5.78;76.28;97087.03;1716172;83;21037;-77
2022/02/13 04:23:14;;;;;;;4.50;2.60;;;;;;;-5.72;74.76;97091.33;1716602;83;21017;-78
2022/02/13 04:25:41;;;;;;;4.50;2.67;;;;;;;-5.72;75.01;97083.61;1716565;84;21033;-78
2022/02/13 04:28:08;;;;;;;2.73;1.90;;;;;;;-5.66;74.41;97082.73;1715983;84;21021;-78
2022/02/13 04:30:34;;;;;;;4.97;2.50;;;;;;;-5.69;74.10;97086.78;1716134;84;21029;-77
2022/02/13 04:33:02;;;;;;;5.80;2.80;;;;;;;-5.90;74.46;97077.20;1716652;83;21511;-77
2022/02/13 04:35:29;;;;;;;6.13;2.17;;;;;;;-5.94;74.60;97077.84;1716184;83;20973;-78
2022/02/13 04:37:57;;;;;;;3.33;2.17;;;;;;;-5.91;74.77;97077.61;1716574;83;21009;-77
2022/02/13 04:40:24;;;;;;;4.70;2.43;;;;;;;-5.92;74.16;97078.41;1716365;84;21061;-77
2022/02/13 04:42:51;;;;;;;5.87;3.43;;;;;;;-5.94;74.57;97072.30;1716356;83;21060;-77
2022/02/13 04:45:18;;;;;;;5.37;2.77;;;;;;;-5.82;74.80;97074.78;1716479;84;21036;-77
2022/02/13 04:47:45;;;;;;;5.43;2.97;;;;;;;-5.80;74.72;97082.17;1715996;83;21124;-77
2022/02/13 04:50:18;;;;;;;6.40;2.80;;;;;;;-5.83;74.02;97076.84;1716560;83;21526;-77
2022/02/13 04:52:40;;;;;;;4.70;2.80;;;;;;;-5.87;74.20;97078.33;1715464;84;21025;-77
2022/02/13 04:55:07;;;;;;;6.13;2.80;;;;;;;-5.87;74.04;97082.58;1715826;83;21133;-77
2022/02/13 04:57:34;;;;;;;7.03;3.23;;;;;;;-5.97;74.49;97077.23;1716523;83;20989;-77
2022/02/13 05:00:00;;;;;;;4.97;2.90;;;;;;;-5.88;74.61;97081.66;1716136;84;21067;-77
2022/02/13 05:02:27;;;;;;;6.03;3.90;;;;;;;-5.89;74.35;97086.31;1716062;83;21567;-77
2022/02/13 05:04:53;;;;;;;3.70;2.43;;;;;;;-6.08;75.09;97080.73;1716459;84;21014;-77
2022/02/13 05:07:20;;;;;;;5.37;2.67;;;;;;;-6.20;75.27;97081.16;1716107;84;21148;-76
2022/02/13 05:09:46;;;;;;;5.60;2.83;;;;;;;-6.25;75.09;97087.27;1716341;83;21029;-77
2022/02/13 05:12:13;;;;;;;4.27;2.70;;;;;;;-6.24;75.48;97080.08;1716464;83;21025;-77
2022/02/13 05:14:40;;;;;;;4.57;2.20;;;;;;;-6.26;76.03;97080.75;1716140;84;21052;-77
2022/02/13 05:17:08;;;;;;;5.13;2.20;;;;;;;-6.15;76.33;97081.09;1716330;83;21036;-77
2022/02/13 05:19:34;;;;;;;5.10;2.57;;;;;;;-6.08;75.52;97081.13;1716394;83;21084;-77
2022/02/13 05:22:01;;;;;;;3.80;2.37;;;;;;;-6.08;75.33;97077.27;1716490;83;20993;-77
2022/02/13 05:24:27;;;;;;;4.23;2.40;;;;;;;-6.00;75.70;97080.86;1716478;84;21025;-77
2022/02/13 05:26:54;;;;;;;5.50;2.93;;;;;;;-5.92;75.41;97078.77;1716211;83;21044;-77
2022/02/13 05:29:21;;;;;;;4.00;1.80;;;;;;;-5.82;75.01;97073.87;1716133;84;21041;-77
2022/02/13 05:31:47;;;;;;;4.63;2.40;;;;;;;-5.82;74.45;97073.50;1716349;83;21048;-77
2022/02/13 05:34:16;;;;;;;4.50;2.40;;;;;;;-5.83;74.58;97071.70;1716479;83;21021;-77
2022/02/13 05:36:44;;;;;;;4.90;2.43;;;;;;;-5.85;74.42;97073.27;1716326;84;21013;-79
2022/02/13 05:39:11;;;;;;;3.67;2.27;;;;;;;-5.76;74.86;97075.19;1716357;83;21550;-77
2022/02/13 05:41:37;;;;;;;5.17;2.40;;;;;;;-5.66;74.41;97071.16;1716155;84;21017;-77
2022/02/13 05:44:04;;;;;;;7.23;2.30;;;;;;;-5.88;74.46;97071.78;1716458;83;21032;-77
2022/02/13 05:46:31;;;;;;;8.27;3.60;;;;;;;-6.04;74.88;97069.00;1716290;84;21049;-77
2022/02/13 05:48:59;;;;;;;6.10;3.27;;;;;;;-6.09;75.31;97066.11;1716423;83;21033;-76
2022/02/13 05:51:26;;;;;;;6.97;2.60;;;;;;;-5.98;75.49;97067.72;1716316;83;20997;-77
2022/02/13 05:53:54;;;;;;;5.03;2.97;;;;;;;-5.78;75.29;97063.02;1716425;83;21033;-76
2022/02/13 05:56:21;;;;;;;21.10;7.97;;;;;;;-5.82;74.49;97063.58;1716351;83;21055;-77
2022/02/13 05:58:48;;;;;;;8.77;4.13;;;;;;;-5.75;74.58;97064.09;1715873;83;21527;-77
2022/02/13 06:01:15;;;;;;;6.50;3.13;;;;;;;-5.88;73.77;97061.50;1716371;83;21029;-78
2022/02/13 06:03:43;;;;;;;7.53;3.63;;;;;;;-6.00;74.75;97063.27;1716408;83;21017;-77
2022/02/13 06:06:10;;;;;;;9.67;3.80;;;;;;;-5.90;75.21;97065.27;1716242;83;21037;-77
2022/02/13 06:08:37;;;;;;;7.10;3.20;;;;;;;-5.88;75.64;97064.95;1716092;83;21051;-78
2022/02/13 06:11:04;;;;;;;15.70;6.77;;;;;;;-5.82;75.30;97063.58;1716257;83;21017;-78
2022/02/13 06:13:31;;;;;;;26.33;8.03;;;;;;;-5.93;75.51;97064.16;1716278;83;21076;-78
2022/02/13 06:15:58;;;;;;;40.67;12.67;;;;;;;-5.92;75.60;97065.55;1716344;83;21036;-77
2022/02/13 06:18:25;;;;;;;47.50;14.87;;;;;;;-5.80;75.82;97065.87;1716717;83;21062;-79
2022/02/13 06:20:51;;;;;;;12.10;4.57;;;;;;;-5.79;75.32;97064.70;1721618;83;21025;-79
2022/02/13 06:23:18;;;;;;;15.37;6.57;;;;;;;-5.83;75.63;97066.55;1721686;83;21538;-77
2022/02/13 06:25:44;;;;;;;17.67;6.53;;;;;;;-5.87;75.34;97066.76;1721820;83;21088;-74
2022/02/13 06:28:13;;;;;;;8.80;4.07;;;;;;;-5.84;75.78;97062.62;1721913;83;21036;-79
2022/02/13 06:30:40;;;;;;;17.00;7.10;;;;;;;-5.82;76.43;97063.58;1721966;82;21494;-79
2022/02/13 06:33:06;;;;;;;20.87;9.17;;;;;;;-5.72;76.74;97062.12;1721834;83;21306;-78
2022/02/13 06:35:33;;;;;;;45.73;18.23;;;;;;;-5.63;77.28;97065.73;1722041;83;21021;-78
2022/02/13 06:38:01;;;;;;;49.43;22.57;;;;;;;-5.44;76.95;97062.31;1721965;83;21522;-79
2022/02/13 06:40:29;;;;;;;48.13;21.27;;;;;;;-5.32;76.92;97065.66;1721848;83;21503;-79
2022/02/13 06:42:55;;;;;;;46.50;20.40;;;;;;;-5.12;77.26;97059.65;1721912;83;21005;-79
2022/02/13 06:45:22;;;;;;;36.77;16.67;;;;;;;-4.87;76.50;97054.39;1721802;83;21001;-79
2022/02/13 06:47:48;;;;;;;30.03;14.27;;;;;;;-4.73;76.18;97052.72;1722026;83;21059;-79
2022/02/13 06:50:15;;;;;;;25.27;11.77;;;;;;;-4.53;76.25;97047.53;1721996;83;21036;-78
2022/02/13 06:52:41;;;;;;;24.10;12.93;;;;;;;-4.33;75.35;97042.30;1722039;83;21030;-78
2022/02/13 06:55:09;;;;;;;18.90;10.87;;;;;;;-4.07;74.60;97043.91;1721584;83;21025;-77
2022/02/13 06:57:48;;;;;;;18.97;10.97;;;;;;;-3.96;74.11;97046.31;1721918;83;21029;-77
2022/02/13 07:00:17;;;;;;;21.77;10.30;;;;;;;-3.87;73.00;97034.39;1722260;83;21037;-78
2022/02/13 07:02:45;;;;;;;16.73;9.07;;;;;;;-3.71;73.12;97033.61;1721782;83;21008;-78
2022/02/13 07:05:12;;;;;;;17.27;8.50;;;;;;;-3.62;72.03;97031.58;1721842;83;21036;-77
2022/02/13 07:07:39;;;;;;;11.43;6.73;;;;;;;-3.56;71.90;97034.91;1722044;83;21590;-78
2022/02/13 07:10:10;;;;;;;12.10;6.70;;;;;;;-3.48;72.15;97040.11;1693705;83;21009;-78
2022/02/13 07:12:39;;;;;;;15.77;8.97;;;;;;;-3.32;71.59;97038.92;1721877;83;21494;-78
2022/02/13 07:15:07;;;;;;;20.87;11.60;;;;;;;-3.26;71.25;97043.14;1721781;83;21032;-78
2022/02/13 07:17:37;;;;;;;19.67;10.33;;;;;;;-3.21;71.27;97041.23;1721995;83;21033;-77
2022/02/13 07:20:06;;;;;;;147.60;57.70;;;;;;;-3.16;71.12;97041.09;1718466;83;21065;-78
2022/02/13 07:22:34;;;;;;;53.60;24.67;;;;;;;-3.00;71.09;97032.52;1716483;83;21535;-78
2022/02/13 07:25:01;;;;;;;163.77;66.30;;;;;;;-2.82;70.69;97036.16;1716563;83;21045;-78
2022/02/13 07:27:27;;;;;;;62.33;31.10;;;;;;;-2.68;70.54;97027.45;1716370;83;21029;-78
2022/02/13 07:29:54;;;;;;;30.70;15.47;;;;;;;-2.55;70.52;97024.25;1716741;83;21060;-78
2022/02/13 07:32:20;;;;;;;55.50;34.97;;;;;;;-2.43;69.90;97026.22;1716731;83;21005;-78
2022/02/13 07:34:47;;;;;;;27.63;17.57;;;;;;;-2.28;69.85;97024.45;1716337;83;21025;-78
2022/02/13 07:37:14;;;;;;;24.83;15.73;;;;;;;-2.16;70.11;97022.06;1716514;83;21020;-77
2022/02/13 07:39:40;;;;;;;27.60;15.43;;;;;;;-2.05;69.54;97014.03;1716539;83;21009;-77
2022/02/13 07:42:07;;;;;;;27.33;15.93;;;;;;;-1.97;69.56;97016.64;1716049;83;21100;-77
2022/02/13 07:44:34;;;;;;;34.37;21.97;;;;;;;-1.95;69.37;97020.59;1716227;84;21033;-77
2022/02/13 07:47:01;;;;;;;23.00;12.97;;;;;;;-1.96;68.74;97017.53;1716385;83;21037;-77
2022/02/13 07:49:27;;;;;;;26.70;15.73;;;;;;;-1.78;69.77;97012.00;1716200;83;21148;-77
2022/02/13 07:51:54;;;;;;;12.60;7.47;;;;;;;-1.59;68.36;97011.64;1716622;83;21009;-78
2022/02/13 07:54:21;;;;;;;21.17;12.00;;;;;;;-1.60;66.84;97008.17;1716277;84;21013;-78
2022/02/13 07:56:48;;;;;;;18.50;9.90;;;;;;;-1.47;67.90;97010.09;1716440;83;20996;-78
2022/02/13 07:59:14;;;;;;;20.43;9.87;;;;;;;-1.31;67.34;97008.36;1716581;83;21056;-79
2022/02/13 08:01:41;;;;;;;21.90;10.63;;;;;;;-1.15;67.38;97000.04;1716431;83;21021;-78
2022/02/13 08:04:07;;;;;;;21.00;10.60;;;;;;;-0.96;67.60;97004.02;1716235;83;21021;-79
2022/02/13 08:06:34;;;;;;;17.87;9.40;;;;;;;-0.84;66.32;96997.63;1716402;83;21519;-77
2022/02/13 08:09:00;;;;;;;17.57;9.93;;;;;;;-0.68;66.79;97000.13;1716283;83;21008;-78
2022/02/13 08:11:27;;;;;;;17.97;9.30;;;;;;;-0.50;67.20;96996.23;1716284;83;21060;-78
2022/02/13 08:13:54;;;;;;;14.17;7.80;;;;;;;-0.37;66.84;96998.57;1716492;84;21095;-78
2022/02/13 08:16:21;;;;;;;14.57;6.97;;;;;;;-0.24;66.26;96989.64;1716420;83;21052;-78
2022/02/13 08:18:47;;;;;;;13.80;7.20;;;;;;;-0.15;65.54;96988.77;1716374;83;21059;-79
2022/02/13 08:21:14;;;;;;;20.50;6.87;;;;;;;-0.04;65.96;96986.23;1680225;85;21033;-79
2022/02/13 08:23:40;;;;;;;10.43;6.10;;;;;;;0.07;65.34;96985.81;1680299;85;21033;-80
2022/02/13 08:26:08;;;;;;;7.63;4.97;;;;;;;0.21;65.78;96984.30;1680040;85;21001;-78
2022/02/13 08:28:35;;;;;;;12.13;6.40;;;;;;;0.25;65.44;96976.23;1680046;85;21041;-79
2022/02/13 08:31:03;;;;;;;15.30;7.03;;;;;;;0.36;63.67;96972.41;1679927;85;21105;-79
2022/02/13 08:33:30;;;;;;;9.10;5.70;;;;;;;0.41;63.03;96977.38;1679943;85;21037;-80
2022/02/13 08:35:56;;;;;;;5.93;3.33;;;;;;;0.51;63.89;96971.29;1680247;85;21019;-79
2022/02/13 08:38:23;;;;;;;9.03;5.07;;;;;;;0.55;61.24;96970.16;1680181;85;21025;-79
2022/02/13 08:40:51;;;;;;;9.90;5.60;;;;;;;0.60;61.27;96957.38;1680187;85;21038;-79
2022/02/13 08:43:19;;;;;;;7.93;5.97;;;;;;;0.72;61.45;96969.58;1680067;85;20982;-80
2022/02/13 08:45:47;;;;;;;8.83;5.57;;;;;;;0.80;61.00;96959.50;1680093;85;21049;-79
2022/02/13 08:48:13;;;;;;;8.27;4.57;;;;;;;0.91;61.53;96963.44;1680317;85;21069;-80
2022/02/13 08:50:40;;;;;;;7.30;4.30;;;;;;;1.00;60.74;96956.41;1701926;84;21009;-79
2022/02/13 08:53:07;;;;;;;7.63;3.83;;;;;;;1.08;61.04;96958.89;1702087;84;21068;-80
2022/02/13 08:55:34;;;;;;;7.87;4.50;;;;;;;1.14;60.40;96957.85;1702191;84;21052;-81
2022/02/13 08:58:00;;;;;;;7.33;4.90;;;;;;;1.26;60.65;96954.83;1702214;84;21016;-81
2022/02/13 09:00:27;;;;;;;8.47;4.43;;;;;;;1.33;59.49;96962.05;1701756;84;21170;-80
2022/02/13 09:02:53;;;;;;;9.13;4.67;;;;;;;1.45;60.60;96956.02;1702149;84;21057;-80
2022/02/13 09:05:20;;;;;;;8.23;5.40;;;;;;;1.59;60.98;96955.66;1701989;84;21037;-81
2022/02/13 09:07:46;;;;;;;11.73;4.80;;;;;;;1.72;61.65;96956.19;1702269;84;21052;-79
2022/02/13 09:10:14;;;;;;;20.07;10.73;;;;;;;1.86;61.66;96952.78;1702246;84;21490;-79
2022/02/13 09:12:43;;;;;;;8.43;4.90;;;;;;;2.00;60.82;96949.82;1702114;84;21530;-79
2022/02/13 09:15:10;;;;;;;6.93;5.03;;;;;;;2.14;61.13;96944.67;1702190;84;21009;-79
2022/02/13 09:17:37;;;;;;;17.60;5.93;;;;;;;2.29;60.08;96946.94;1702187;84;21013;-79
2022/02/13 09:20:06;;;;;;;9.70;4.73;;;;;;;2.28;57.57;96943.45;1699100;84;21006;-80
2022/02/13 09:22:33;;;;;;;5.50;3.90;;;;;;;2.41;59.32;96945.19;1694593;84;21033;-80
2022/02/13 09:24:59;;;;;;;8.00;6.00;;;;;;;2.50;59.07;96947.70;1716117;84;21045;-80
2022/02/13 09:27:26;;;;;;;9.27;4.93;;;;;;;2.60;58.61;96941.08;1716525;84;21008;-86
2022/02/13 09:29:54;;;;;;;6.87;4.37;;;;;;;2.71;59.05;96936.22;1716242;83;21542;-80
2022/02/13 09:32:21;;;;;;;7.83;4.70;;;;;;;2.81;57.02;96932.66;1716567;84;21523;-79
2022/02/13 09:34:48;;;;;;;5.63;3.63;;;;;;;2.84;56.85;96934.91;1716434;84;21002;-79
2022/02/13 09:37:14;;;;;;;6.20;4.20;;;;;;;2.86;57.69;96933.23;1716388;83;21530;-81
2022/02/13 09:39:41;;;;;;;9.20;4.53;;;;;;;2.92;58.13;96929.09;1716649;83;21013;-79
2022/02/13 09:42:09;;;;;;;6.93;4.90;;;;;;;3.06;58.39;96938.67;1716240;83;21297;-79
2022/02/13 09:44:37;;;;;;;6.40;4.23;;;;;;;3.15;57.70;96932.84;1686580;84;21025;-78
2022/02/13 09:47:06;;;;;;;7.20;4.50;;;;;;;3.24;58.01;96927.51;1716538;84;21005;-79
2022/02/13 09:49:32;;;;;;;9.57;5.13;;;;;;;3.33;56.85;96929.96;1716107;83;21009;-79
2022/02/13 09:52:01;;;;;;;9.73;4.97;;;;;;;3.37;56.78;96920.95;1716315;83;21032;-77
2022/02/13 09:54:27;;;;;;;7.43;4.47;;;;;;;3.46;56.41;96922.97;1716324;84;21571;-76
2022/02/13 09:57:59;;;;;;;7.83;5.37;;;;;;;3.50;57.24;96918.28;1716101;83;21028;-76
2022/02/13 09:59:22;;;;;;;8.83;5.50;;;;;;;3.67;56.55;96917.48;1711847;84;21033;-76
2022/02/13 10:01:48;;;;;;;8.70;5.20;;;;;;;3.80;56.93;96907.86;1716309;84;21516;-76
2022/02/13 10:04:15;;;;;;;7.83;4.90;;;;;;;3.88;56.91;96902.86;1716214;84;21084;-76
2022/02/13 10:06:42;;;;;;;7.67;4.60;;;;;;;3.94;55.93;96898.25;1716443;84;20981;-76
2022/02/13 10:09:10;;;;;;;8.43;4.93;;;;;;;4.08;56.53;96894.27;1716471;84;21005;-75
2022/02/13 10:11:39;;;;;;;9.63;4.50;;;;;;;4.10;54.51;96894.77;1716302;83;21044;-76
2022/02/13 10:14:14;;;;;;;8.43;4.67;;;;;;;4.09;55.14;96894.33;1716225;84;21025;-76
2022/02/13 10:16:45;;;;;;;7.83;4.70;;;;;;;4.18;54.45;96886.27;1716486;83;21001;-77
2022/02/13 10:19:19;;;;;;;7.57;5.20;;;;;;;4.30;55.08;96877.45;1716246;83;21452;-76
2022/02/13 10:21:53;;;;;;;8.50;4.90;;;;;;;4.41;54.75;96875.11;1716362;83;21068;-76
2022/02/13 10:24:33;;;;;;;;;;;;;;;4.49;55.07;96871.87;1718942;83;21076;-74
2022/02/13 10:27:07;;;;;;;10.07;5.70;;;;;;;4.60;54.42;96870.82;1738241;82;20403;-76
2022/02/13 10:29:41;;;;;;;8.53;5.27;;;;;;;4.62;53.21;96866.52;1716323;83;21093;-76
2022/02/13 10:32:20;;;;;;;;;;;;;;;4.70;54.30;96860.17;1718824;83;21017;-75
2022/02/13 10:35:08;;;;;;;8.77;5.23;;;;;;;5.04;53.08;96857.95;1716486;83;20406;-76
2022/02/13 10:37:58;;;;;;;8.00;5.67;;;;;;;5.46;52.69;96847.95;1716618;83;21017;-74
2022/02/13 10:40:28;;;;;;;10.87;8.20;;;;;;;5.93;50.46;96834.95;1716496;84;21065;-75
2022/02/13 10:43:05;;;;;;;9.40;6.20;;;;;;;6.27;49.32;96832.98;1715890;84;21010;-75
2022/02/13 10:45:33;;;;;;;9.13;6.00;;;;;;;6.59;50.09;96823.06;1710512;84;21025;-76
2022/02/13 10:48:04;;;;;;;7.77;5.43;;;;;;;7.02;48.93;96819.80;1716302;83;21065;-75
2022/02/13 10:50:37;;;;;;;8.83;5.23;;;;;;;7.29;46.75;96817.13;1716417;84;21534;-75
2022/02/13 10:53:06;;;;;;;9.95;5.72;;;;;;;7.71;47.02;96804.98;1716268;83;21554;-74
2022/02/13 10:55:36;;;;;;;9.67;6.63;;;;;;;8.13;44.95;96802.80;1716396;83;21053;-74
2022/02/13 10:58:04;;;;;;;11.03;8.40;;;;;;;8.37;43.65;96802.18;1716171;83;21033;-74
2022/02/13 11:00:31;;;;;;;9.83;6.10;;;;;;;8.65;43.79;96795.44;1716194;83;21001;-74
2022/02/13 11:03:02;;;;;;;11.60;7.60;;;;;;;8.86;42.85;96798.22;1716082;83;21041;-74
2022/02/13 11:05:30;;;;;;;7.75;5.95;;;;;;;9.02;42.01;96784.75;1716353;83;21025;-74
2022/02/13 11:08:10;;;;;;;9.70;6.00;;;;;;;9.12;40.23;96785.66;1716273;83;21029;-73
2022/02/13 11:10:47;;;;;;;7.85;5.92;;;;;;;9.50;41.45;96781.95;1716066;84;21080;-73
2022/02/13 11:13:14;;;;;;;8.20;6.12;;;;;;;9.78;40.27;96779.42;1716532;83;20977;-74
2022/02/13 11:15:45;;;;;;;8.23;5.83;;;;;;;9.97;39.74;96775.95;1716346;83;21067;-74
2022/02/13 11:18:22;;;;;;;8.65;6.05;;;;;;;10.00;38.78;96772.88;1716541;83;21037;-74
2022/02/13 11:20:51;;;;;;;8.15;5.90;;;;;;;10.17;39.41;96766.77;1719045;83;21020;-74
2022/02/13 11:23:27;;;;;;;8.70;6.15;;;;;;;10.59;39.88;96764.22;1721836;83;21028;-74
2022/02/13 11:26:05;;;;;;;11.50;7.00;;;;;;;10.78;37.86;96757.16;1721923;82;21024;-73
2022/02/13 11:28:46;;;;;;;6.97;5.70;;;;;;;10.83;37.17;96750.11;1721691;83;21542;-73
2022/02/13 11:31:40;;;;;;;8.10;6.22;;;;;;;10.60;38.04;96749.68;1721984;83;21005;-73
2022/02/13 11:34:31;;;;;;;10.08;6.33;;;;;;;10.17;37.77;96752.25;1721862;83;21014;-74
2022/02/13 11:37:14;;;;;;;7.05;5.80;;;;;;;9.91;37.56;96753.98;1722215;83;21053;-74